LTAD/ANK METAR and TAF weather

Enter ICAO airport designator
Station Type Date Time Source
LTAD METAR 2021/05/14 21:50 UTC NOAA

LTAD 142150Z 29004KT 260V320 CAVOK 17/07 Q1016 NOSIG RMK RWY29 VRB01KT


Station Type Date Time Source
LTAD Decoded METAR 2021/05/14 21:50 UTC NOAA

Ankara / Etimesgut, Turkey (LTAD) 39-57N 032-41E 806M
May 14, 2021 - 05:50 PM EDT / 2021.05.14 2150 UTC
Wind: from the WNW (290 degrees) at 5 MPH (4 KT) (direction variable):0
Visibility: greater than 7 mile(s):0
Temperature: 62 F (17 C)
Dew Point: 44 F (7 C)
Relative Humidity: 51%
Pressure (altimeter): 30.00 in. Hg (1016 hPa)
ob: LTAD 142150Z 29004KT 260V320 CAVOK 17/07 Q1016 NOSIG RMK RWY29 VRB01KT
cycle: 22

Station Type Date Time Source
LTAD TAF UTC NOAA

Error!

Example: see airport list